sensor_id;sensor_type;location;lat;lon;timestamp;temperature;humidity
18083;DHT22;9168;51.194;6.840;2023-06-22T00:01:17;22.50;99.90
18083;DHT22;9168;51.194;6.840;2023-06-22T00:03:44;22.50;99.90
18083;DHT22;9168;51.194;6.840;2023-06-22T00:06:12;22.50;99.90
18083;DHT22;9168;51.194;6.840;2023-06-22T00:08:39;22.40;99.90
18083;DHT22;9168;51.194;6.840;2023-06-22T00:11:07;22.40;99.90
18083;DHT22;9168;51.194;6.840;2023-06-22T00:13:34;22.40;99.90
18083;DHT22;9168;51.194;6.840;2023-06-22T00:16:01;22.40;99.90
18083;DHT22;9168;51.194;6.840;2023-06-22T00:18:27;22.30;99.90
18083;DHT22;9168;51.194;6.840;2023-06-22T00:20:56;22.30;99.90
18083;DHT22;9168;51.194;6.840;2023-06-22T00:23:25;22.30;99.90
18083;DHT22;9168;51.194;6.840;2023-06-22T00:25:53;22.30;99.90
18083;DHT22;9168;51.194;6.840;2023-06-22T00:28:21;22.30;99.90
18083;DHT22;9168;51.194;6.840;2023-06-22T00:30:48;22.30;99.90
18083;DHT22;9168;51.194;6.840;2023-06-22T00:33:15;22.30;99.90
18083;DHT22;9168;51.194;6.840;2023-06-22T00:35:42;22.30;99.90
18083;DHT22;9168;51.194;6.840;2023-06-22T00:38:09;22.30;99.90
18083;DHT22;9168;51.194;6.840;2023-06-22T00:40:36;22.30;99.90
18083;DHT22;9168;51.194;6.840;2023-06-22T00:43:03;22.30;99.90
18083;DHT22;9168;51.194;6.840;2023-06-22T00:45:31;22.30;99.90
18083;DHT22;9168;51.194;6.840;2023-06-22T00:47:59;22.30;99.90
18083;DHT22;9168;51.194;6.840;2023-06-22T00:50:27;22.30;99.90
18083;DHT22;9168;51.194;6.840;2023-06-22T00:52:59;22.30;99.90
18083;DHT22;9168;51.194;6.840;2023-06-22T00:55:26;22.30;99.90
18083;DHT22;9168;51.194;6.840;2023-06-22T00:57:53;22.30;99.90
18083;DHT22;9168;51.194;6.840;2023-06-22T01:00:22;22.30;99.90
18083;DHT22;9168;51.194;6.840;2023-06-22T01:02:51;22.30;99.90
18083;DHT22;9168;51.194;6.840;2023-06-22T01:05:20;22.20;99.90
18083;DHT22;9168;51.194;6.840;2023-06-22T01:07:58;22.20;99.90
18083;DHT22;9168;51.194;6.840;2023-06-22T01:10:33;22.30;99.90
18083;DHT22;9168;51.194;6.840;2023-06-22T01:13:05;22.20;99.90
18083;DHT22;9168;51.194;6.840;2023-06-22T01:15:37;22.20;99.90
18083;DHT22;9168;51.194;6.840;2023-06-22T01:18:08;22.20;99.90
18083;DHT22;9168;51.194;6.840;2023-06-22T01:20:36;22.10;99.90
18083;DHT22;9168;51.194;6.840;2023-06-22T01:23:09;22.10;99.90
18083;DHT22;9168;51.194;6.840;2023-06-22T01:25:45;22.10;99.90
18083;DHT22;9168;51.194;6.840;2023-06-22T01:28:24;22.10;99.90
18083;DHT22;9168;51.194;6.840;2023-06-22T01:30:54;22.00;99.90
18083;DHT22;9168;51.194;6.840;2023-06-22T01:33:29;22.00;99.90
18083;DHT22;9168;51.194;6.840;2023-06-22T01:35:57;22.00;99.90
18083;DHT22;9168;51.194;6.840;2023-06-22T01:38:25;22.00;99.90
18083;DHT22;9168;51.194;6.840;2023-06-22T01:40:52;22.00;99.90
18083;DHT22;9168;51.194;6.840;2023-06-22T01:43:21;21.90;99.90
18083;DHT22;9168;51.194;6.840;2023-06-22T01:45:50;21.90;99.90
18083;DHT22;9168;51.194;6.840;2023-06-22T01:48:19;21.90;99.90
18083;DHT22;9168;51.194;6.840;2023-06-22T01:50:47;21.80;99.90
18083;DHT22;9168;51.194;6.840;2023-06-22T01:53:14;21.80;99.90
18083;DHT22;9168;51.194;6.840;2023-06-22T01:55:40;21.80;99.90
18083;DHT22;9168;51.194;6.840;2023-06-22T01:58:07;21.80;99.90
18083;DHT22;9168;51.194;6.840;2023-06-22T02:00:37;21.80;99.90
18083;DHT22;9168;51.194;6.840;2023-06-22T02:03:08;21.70;99.90
18083;DHT22;9168;51.194;6.840;2023-06-22T02:05:42;21.70;99.90
18083;DHT22;9168;51.194;6.840;2023-06-22T02:08:12;21.70;99.90
18083;DHT22;9168;51.194;6.840;2023-06-22T02:10:43;21.60;99.90
18083;DHT22;9168;51.194;6.840;2023-06-22T02:13:11;21.60;99.90
18083;DHT22;9168;51.194;6.840;2023-06-22T02:15:38;21.60;99.90
18083;DHT22;9168;51.194;6.840;2023-06-22T02:18:05;21.60;99.90
18083;DHT22;9168;51.194;6.840;2023-06-22T02:20:32;21.60;99.90
18083;DHT22;9168;51.194;6.840;2023-06-22T02:23:05;21.50;99.90
18083;DHT22;9168;51.194;6.840;2023-06-22T02:25:32;21.50;99.90
18083;DHT22;9168;51.194;6.840;2023-06-22T02:27:59;21.50;99.90
18083;DHT22;9168;51.194;6.840;2023-06-22T02:30:26;21.50;99.90
18083;DHT22;9168;51.194;6.840;2023-06-22T02:32:53;21.40;99.90
18083;DHT22;9168;51.194;6.840;2023-06-22T02:35:24;21.40;99.90
18083;DHT22;9168;51.194;6.840;2023-06-22T02:37:51;21.40;99.90
18083;DHT22;9168;51.194;6.840;2023-06-22T02:40:19;21.40;99.90
18083;DHT22;9168;51.194;6.840;2023-06-22T02:42:46;21.40;99.90
18083;DHT22;9168;51.194;6.840;2023-06-22T02:45:14;21.40;99.90
18083;DHT22;9168;51.194;6.840;2023-06-22T02:47:40;21.40;99.90
18083;DHT22;9168;51.194;6.840;2023-06-22T02:50:08;21.40;99.90
18083;DHT22;9168;51.194;6.840;2023-06-22T02:52:35;21.40;99.90
18083;DHT22;9168;51.194;6.840;2023-06-22T02:55:02;21.40;99.90
18083;DHT22;9168;51.194;6.840;2023-06-22T02:57:31;21.40;99.90
18083;DHT22;9168;51.194;6.840;2023-06-22T02:59:58;21.40;99.90
18083;DHT22;9168;51.194;6.840;2023-06-22T03:02:24;21.40;99.90
18083;DHT22;9168;51.194;6.840;2023-06-22T03:04:52;21.40;99.90
18083;DHT22;9168;51.194;6.840;2023-06-22T03:07:19;21.40;99.90
18083;DHT22;9168;51.194;6.840;2023-06-22T03:09:46;21.50;99.90
18083;DHT22;9168;51.194;6.840;2023-06-22T03:12:13;21.40;99.90
18083;DHT22;9168;51.194;6.840;2023-06-22T03:14:41;21.40;99.90
18083;DHT22;9168;51.194;6.840;2023-06-22T03:17:09;21.40;99.90
18083;DHT22;9168;51.194;6.840;2023-06-22T03:19:36;21.40;99.90
18083;DHT22;9168;51.194;6.840;2023-06-22T03:22:03;21.40;99.90
18083;DHT22;9168;51.194;6.840;2023-06-22T03:24:30;21.40;99.90
18083;DHT22;9168;51.194;6.840;2023-06-22T03:26:57;21.40;99.90
18083;DHT22;9168;51.194;6.840;2023-06-22T03:29:24;21.40;99.90
18083;DHT22;9168;51.194;6.840;2023-06-22T03:31:53;21.40;99.90
18083;DHT22;9168;51.194;6.840;2023-06-22T03:34:22;21.40;99.90
18083;DHT22;9168;51.194;6.840;2023-06-22T03:36:49;21.40;99.90
18083;DHT22;9168;51.194;6.840;2023-06-22T03:39:16;21.40;99.90
18083;DHT22;9168;51.194;6.840;2023-06-22T03:41:43;21.40;99.90
18083;DHT22;9168;51.194;6.840;2023-06-22T03:44:10;21.40;99.90
18083;DHT22;9168;51.194;6.840;2023-06-22T03:46:38;21.40;99.90
18083;DHT22;9168;51.194;6.840;2023-06-22T03:49:06;21.50;99.90
18083;DHT22;9168;51.194;6.840;2023-06-22T03:51:33;21.50;99.90
18083;DHT22;9168;51.194;6.840;2023-06-22T03:54:00;21.50;99.90
18083;DHT22;9168;51.194;6.840;2023-06-22T03:56:27;21.50;99.90
18083;DHT22;9168;51.194;6.840;2023-06-22T03:58:54;21.50;99.90
18083;DHT22;9168;51.194;6.840;2023-06-22T04:01:20;21.50;99.90
18083;DHT22;9168;51.194;6.840;2023-06-22T04:03:47;21.60;99.90
18083;DHT22;9168;51.194;6.840;2023-06-22T04:06:16;21.60;99.90
18083;DHT22;9168;51.194;6.840;2023-06-22T04:08:45;21.60;99.90
18083;DHT22;9168;51.194;6.840;2023-06-22T04:11:16;21.60;99.90
18083;DHT22;9168;51.194;6.840;2023-06-22T04:13:43;21.60;99.90
18083;DHT22;9168;51.194;6.840;2023-06-22T04:16:10;21.60;99.90
18083;DHT22;9168;51.194;6.840;2023-06-22T04:18:37;21.60;99.90
18083;DHT22;9168;51.194;6.840;2023-06-22T04:21:04;21.60;99.90
18083;DHT22;9168;51.194;6.840;2023-06-22T04:23:32;21.60;99.90
18083;DHT22;9168;51.194;6.840;2023-06-22T04:25:59;21.60;99.90
18083;DHT22;9168;51.194;6.840;2023-06-22T04:28:26;21.60;99.90
18083;DHT22;9168;51.194;6.840;2023-06-22T04:30:53;21.60;99.90
18083;DHT22;9168;51.194;6.840;2023-06-22T04:33:24;21.60;99.90
18083;DHT22;9168;51.194;6.840;2023-06-22T04:35:51;21.60;99.90
18083;DHT22;9168;51.194;6.840;2023-06-22T04:38:18;21.60;99.90
18083;DHT22;9168;51.194;6.840;2023-06-22T04:40:48;21.60;99.90
18083;DHT22;9168;51.194;6.840;2023-06-22T04:43:15;21.70;99.90
18083;DHT22;9168;51.194;6.840;2023-06-22T04:45:42;21.70;99.90
18083;DHT22;9168;51.194;6.840;2023-06-22T04:48:09;21.70;99.90
18083;DHT22;9168;51.194;6.840;2023-06-22T04:50:41;21.70;99.90
18083;DHT22;9168;51.194;6.840;2023-06-22T04:53:08;21.70;99.90
18083;DHT22;9168;51.194;6.840;2023-06-22T04:55:35;21.70;99.90
18083;DHT22;9168;51.194;6.840;2023-06-22T04:58:04;21.70;99.90
18083;DHT22;9168;51.194;6.840;2023-06-22T05:00:31;21.70;99.90
18083;DHT22;9168;51.194;6.840;2023-06-22T05:03:01;21.70;99.90
18083;DHT22;9168;51.194;6.840;2023-06-22T05:05:29;21.70;99.90
18083;DHT22;9168;51.194;6.840;2023-06-22T05:07:56;21.70;99.90
18083;DHT22;9168;51.194;6.840;2023-06-22T05:10:26;21.70;99.90
18083;DHT22;9168;51.194;6.840;2023-06-22T05:12:53;21.70;99.90
18083;DHT22;9168;51.194;6.840;2023-06-22T05:15:21;21.70;99.90
18083;DHT22;9168;51.194;6.840;2023-06-22T05:17:52;21.80;99.90
18083;DHT22;9168;51.194;6.840;2023-06-22T05:20:19;21.70;99.90
18083;DHT22;9168;51.194;6.840;2023-06-22T05:22:48;21.80;99.90
18083;DHT22;9168;51.194;6.840;2023-06-22T05:25:14;21.80;99.90
18083;DHT22;9168;51.194;6.840;2023-06-22T05:27:41;21.80;99.90
18083;DHT22;9168;51.194;6.840;2023-06-22T05:30:10;21.80;99.90
18083;DHT22;9168;51.194;6.840;2023-06-22T05:32:38;21.80;99.90
18083;DHT22;9168;51.194;6.840;2023-06-22T05:35:06;21.90;99.90
18083;DHT22;9168;51.194;6.840;2023-06-22T05:37:32;21.90;99.90
18083;DHT22;9168;51.194;6.840;2023-06-22T05:39:59;21.90;99.90
18083;DHT22;9168;51.194;6.840;2023-06-22T05:42:26;21.90;99.90
18083;DHT22;9168;51.194;6.840;2023-06-22T05:44:53;21.90;99.90
18083;DHT22;9168;51.194;6.840;2023-06-22T05:47:20;21.90;99.90
18083;DHT22;9168;51.194;6.840;2023-06-22T05:49:49;22.00;99.90
18083;DHT22;9168;51.194;6.840;2023-06-22T05:52:16;21.90;99.90
18083;DHT22;9168;51.194;6.840;2023-06-22T05:54:44;21.90;99.90
18083;DHT22;9168;51.194;6.840;2023-06-22T05:57:11;21.90;99.90
18083;DHT22;9168;51.194;6.840;2023-06-22T05:59:38;21.90;99.90
18083;DHT22;9168;51.194;6.840;2023-06-22T06:02:05;21.90;99.90
18083;DHT22;9168;51.194;6.840;2023-06-22T06:04:32;21.90;99.90
18083;DHT22;9168;51.194;6.840;2023-06-22T06:07:01;21.90;99.90
18083;DHT22;9168;51.194;6.840;2023-06-22T06:09:28;21.90;99.90
18083;DHT22;9168;51.194;6.840;2023-06-22T06:11:55;22.00;99.90
18083;DHT22;9168;51.194;6.840;2023-06-22T06:14:22;22.00;99.90
18083;DHT22;9168;51.194;6.840;2023-06-22T06:16:48;22.00;99.90
18083;DHT22;9168;51.194;6.840;2023-06-22T06:19:15;22.00;99.90
18083;DHT22;9168;51.194;6.840;2023-06-22T06:21:42;22.00;99.90
18083;DHT22;9168;51.194;6.840;2023-06-22T06:24:11;22.00;99.90
18083;DHT22;9168;51.194;6.840;2023-06-22T06:26:38;22.00;99.90
18083;DHT22;9168;51.194;6.840;2023-06-22T06:29:05;22.00;99.90
18083;DHT22;9168;51.194;6.840;2023-06-22T06:31:32;22.00;99.90
18083;DHT22;9168;51.194;6.840;2023-06-22T06:33:59;22.00;99.90
18083;DHT22;9168;51.194;6.840;2023-06-22T06:36:26;22.00;99.90
18083;DHT22;9168;51.194;6.840;2023-06-22T06:38:53;22.00;99.90
18083;DHT22;9168;51.194;6.840;2023-06-22T06:41:21;22.00;99.90
18083;DHT22;9168;51.194;6.840;2023-06-22T06:43:48;21.90;99.90
18083;DHT22;9168;51.194;6.840;2023-06-22T06:46:15;22.00;99.90
18083;DHT22;9168;51.194;6.840;2023-06-22T06:48:42;22.00;99.90
18083;DHT22;9168;51.194;6.840;2023-06-22T06:51:09;22.00;99.90
18083;DHT22;9168;51.194;6.840;2023-06-22T06:53:37;21.90;99.90
18083;DHT22;9168;51.194;6.840;2023-06-22T06:56:04;21.90;99.90
18083;DHT22;9168;51.194;6.840;2023-06-22T06:58:33;21.90;99.90
18083;DHT22;9168;51.194;6.840;2023-06-22T07:01:00;21.80;99.90
18083;DHT22;9168;51.194;6.840;2023-06-22T07:03:26;21.70;99.90
18083;DHT22;9168;51.194;6.840;2023-06-22T07:05:53;21.70;99.90
18083;DHT22;9168;51.194;6.840;2023-06-22T07:08:20;21.50;99.90
18083;DHT22;9168;51.194;6.840;2023-06-22T07:10:47;21.40;99.90
18083;DHT22;9168;51.194;6.840;2023-06-22T07:13:14;21.40;99.90
18083;DHT22;9168;51.194;6.840;2023-06-22T07:15:42;21.30;99.90
18083;DHT22;9168;51.194;6.840;2023-06-22T07:18:09;21.20;99.90
18083;DHT22;9168;51.194;6.840;2023-06-22T07:20:36;21.20;99.90
18083;DHT22;9168;51.194;6.840;2023-06-22T07:23:04;21.10;99.90
18083;DHT22;9168;51.194;6.840;2023-06-22T07:25:31;21.10;99.90
18083;DHT22;9168;51.194;6.840;2023-06-22T07:28:00;21.10;99.90
18083;DHT22;9168;51.194;6.840;2023-06-22T07:30:28;21.10;99.90
18083;DHT22;9168;51.194;6.840;2023-06-22T07:32:57;21.10;99.90
18083;DHT22;9168;51.194;6.840;2023-06-22T07:35:24;21.10;99.90
18083;DHT22;9168;51.194;6.840;2023-06-22T07:37:51;21.10;99.90
18083;DHT22;9168;51.194;6.840;2023-06-22T07:40:18;21.10;99.90
18083;DHT22;9168;51.194;6.840;2023-06-22T07:42:45;21.20;99.90
18083;DHT22;9168;51.194;6.840;2023-06-22T07:45:14;21.30;99.90
18083;DHT22;9168;51.194;6.840;2023-06-22T07:47:41;21.40;99.90
18083;DHT22;9168;51.194;6.840;2023-06-22T07:50:10;21.50;99.90
18083;DHT22;9168;51.194;6.840;2023-06-22T07:52:37;21.60;99.90
18083;DHT22;9168;51.194;6.840;2023-06-22T07:55:04;21.70;99.90
18083;DHT22;9168;51.194;6.840;2023-06-22T07:57:31;21.80;99.90
18083;DHT22;9168;51.194;6.840;2023-06-22T08:00:03;21.90;99.90
18083;DHT22;9168;51.194;6.840;2023-06-22T08:02:36;21.90;99.90
18083;DHT22;9168;51.194;6.840;2023-06-22T08:05:04;21.90;99.90
18083;DHT22;9168;51.194;6.840;2023-06-22T08:07:34;22.00;99.90
18083;DHT22;9168;51.194;6.840;2023-06-22T08:10:02;22.10;99.90
18083;DHT22;9168;51.194;6.840;2023-06-22T08:12:29;22.10;99.90
18083;DHT22;9168;51.194;6.840;2023-06-22T08:14:56;22.20;99.90
18083;DHT22;9168;51.194;6.840;2023-06-22T08:17:23;22.30;99.90
18083;DHT22;9168;51.194;6.840;2023-06-22T08:19:50;22.40;99.90
18083;DHT22;9168;51.194;6.840;2023-06-22T08:22:17;22.50;99.90
18083;DHT22;9168;51.194;6.840;2023-06-22T08:24:46;22.70;99.90
18083;DHT22;9168;51.194;6.840;2023-06-22T08:27:12;22.80;99.90
18083;DHT22;9168;51.194;6.840;2023-06-22T08:29:40;23.00;99.90
18083;DHT22;9168;51.194;6.840;2023-06-22T08:32:08;23.10;99.90
18083;DHT22;9168;51.194;6.840;2023-06-22T08:34:35;23.20;99.90
18083;DHT22;9168;51.194;6.840;2023-06-22T08:37:02;23.30;99.90
18083;DHT22;9168;51.194;6.840;2023-06-22T08:39:31;23.40;99.90
18083;DHT22;9168;51.194;6.840;2023-06-22T08:42:00;23.50;99.90
18083;DHT22;9168;51.194;6.840;2023-06-22T08:44:27;23.50;99.90
18083;DHT22;9168;51.194;6.840;2023-06-22T08:46:54;23.60;99.90
18083;DHT22;9168;51.194;6.840;2023-06-22T08:49:21;23.60;99.90
18083;DHT22;9168;51.194;6.840;2023-06-22T08:51:48;23.60;99.90
18083;DHT22;9168;51.194;6.840;2023-06-22T08:54:17;23.70;99.90
18083;DHT22;9168;51.194;6.840;2023-06-22T08:56:44;23.80;99.90
18083;DHT22;9168;51.194;6.840;2023-06-22T08:59:13;23.80;99.90
18083;DHT22;9168;51.194;6.840;2023-06-22T09:01:41;23.90;99.90
18083;DHT22;9168;51.194;6.840;2023-06-22T09:04:11;23.90;99.90
18083;DHT22;9168;51.194;6.840;2023-06-22T09:06:38;24.00;99.90
18083;DHT22;9168;51.194;6.840;2023-06-22T09:09:10;24.10;99.90
18083;DHT22;9168;51.194;6.840;2023-06-22T09:11:37;24.20;99.90
18083;DHT22;9168;51.194;6.840;2023-06-22T09:14:04;24.30;99.90
18083;DHT22;9168;51.194;6.840;2023-06-22T09:16:33;24.40;99.90
18083;DHT22;9168;51.194;6.840;2023-06-22T09:19:00;24.60;99.90
18083;DHT22;9168;51.194;6.840;2023-06-22T09:21:27;24.70;99.90
18083;DHT22;9168;51.194;6.840;2023-06-22T09:23:54;24.80;99.90
18083;DHT22;9168;51.194;6.840;2023-06-22T09:26:22;24.90;99.90
18083;DHT22;9168;51.194;6.840;2023-06-22T09:28:49;25.00;99.90
18083;DHT22;9168;51.194;6.840;2023-06-22T09:31:16;25.20;99.90
18083;DHT22;9168;51.194;6.840;2023-06-22T09:33:44;25.20;99.90
18083;DHT22;9168;51.194;6.840;2023-06-22T09:36:12;25.40;99.90
18083;DHT22;9168;51.194;6.840;2023-06-22T09:38:39;25.50;99.90
18083;DHT22;9168;51.194;6.840;2023-06-22T09:41:06;25.60;99.90
18083;DHT22;9168;51.194;6.840;2023-06-22T09:43:33;25.80;99.90
18083;DHT22;9168;51.194;6.840;2023-06-22T09:46:01;25.80;99.90
18083;DHT22;9168;51.194;6.840;2023-06-22T09:48:28;25.90;99.90
18083;DHT22;9168;51.194;6.840;2023-06-22T09:50:57;26.00;99.90
18083;DHT22;9168;51.194;6.840;2023-06-22T09:53:24;26.10;99.90
18083;DHT22;9168;51.194;6.840;2023-06-22T09:55:51;26.20;99.90
18083;DHT22;9168;51.194;6.840;2023-06-22T09:58:18;26.20;99.90
18083;DHT22;9168;51.194;6.840;2023-06-22T10:00:45;26.20;99.90
18083;DHT22;9168;51.194;6.840;2023-06-22T10:03:12;26.30;99.90
18083;DHT22;9168;51.194;6.840;2023-06-22T10:05:39;26.30;99.90
18083;DHT22;9168;51.194;6.840;2023-06-22T10:08:07;26.40;99.90
18083;DHT22;9168;51.194;6.840;2023-06-22T10:10:35;26.60;99.90
18083;DHT22;9168;51.194;6.840;2023-06-22T10:13:08;26.70;99.90
18083;DHT22;9168;51.194;6.840;2023-06-22T10:15:35;26.90;99.90
18083;DHT22;9168;51.194;6.840;2023-06-22T10:18:02;27.00;99.90
18083;DHT22;9168;51.194;6.840;2023-06-22T10:20:30;26.90;99.90
18083;DHT22;9168;51.194;6.840;2023-06-22T10:22:57;26.80;99.90
18083;DHT22;9168;51.194;6.840;2023-06-22T10:25:25;26.70;99.90
18083;DHT22;9168;51.194;6.840;2023-06-22T10:27:52;26.60;99.90
18083;DHT22;9168;51.194;6.840;2023-06-22T10:30:18;26.30;99.90
18083;DHT22;9168;51.194;6.840;2023-06-22T10:32:45;26.20;99.90
18083;DHT22;9168;51.194;6.840;2023-06-22T10:35:12;26.00;99.90
18083;DHT22;9168;51.194;6.840;2023-06-22T10:37:42;25.80;99.90
18083;DHT22;9168;51.194;6.840;2023-06-22T10:40:11;25.60;99.90
18083;DHT22;9168;51.194;6.840;2023-06-22T10:42:39;25.50;99.90
18083;DHT22;9168;51.194;6.840;2023-06-22T10:45:07;25.40;99.90
18083;DHT22;9168;51.194;6.840;2023-06-22T10:47:34;25.20;99.90
18083;DHT22;9168;51.194;6.840;2023-06-22T10:50:02;25.20;99.90
18083;DHT22;9168;51.194;6.840;2023-06-22T10:52:29;25.00;99.90
18083;DHT22;9168;51.194;6.840;2023-06-22T10:54:56;24.80;99.90
18083;DHT22;9168;51.194;6.840;2023-06-22T10:57:23;24.60;99.90
18083;DHT22;9168;51.194;6.840;2023-06-22T10:59:52;24.50;99.90
18083;DHT22;9168;51.194;6.840;2023-06-22T11:02:18;24.30;99.90
18083;DHT22;9168;51.194;6.840;2023-06-22T11:04:46;24.10;99.90
18083;DHT22;9168;51.194;6.840;2023-06-22T11:07:14;24.00;99.90
18083;DHT22;9168;51.194;6.840;2023-06-22T11:09:43;23.90;99.90
18083;DHT22;9168;51.194;6.840;2023-06-22T11:12:09;23.80;99.90
18083;DHT22;9168;51.194;6.840;2023-06-22T11:14:36;23.70;99.90
18083;DHT22;9168;51.194;6.840;2023-06-22T11:17:05;23.60;99.90
18083;DHT22;9168;51.194;6.840;2023-06-22T11:19:32;23.50;99.90
18083;DHT22;9168;51.194;6.840;2023-06-22T11:21:59;23.40;99.90
18083;DHT22;9168;51.194;6.840;2023-06-22T11:24:26;23.40;99.90
18083;DHT22;9168;51.194;6.840;2023-06-22T11:26:53;23.30;99.90
18083;DHT22;9168;51.194;6.840;2023-06-22T11:29:20;23.30;99.90
18083;DHT22;9168;51.194;6.840;2023-06-22T11:31:47;23.20;99.90
18083;DHT22;9168;51.194;6.840;2023-06-22T11:34:15;23.10;99.90
18083;DHT22;9168;51.194;6.840;2023-06-22T11:36:42;23.10;99.90
18083;DHT22;9168;51.194;6.840;2023-06-22T11:39:09;23.00;99.90
18083;DHT22;9168;51.194;6.840;2023-06-22T11:41:36;23.00;99.90
18083;DHT22;9168;51.194;6.840;2023-06-22T11:44:03;23.00;99.90
18083;DHT22;9168;51.194;6.840;2023-06-22T11:46:31;23.00;99.90
18083;DHT22;9168;51.194;6.840;2023-06-22T11:48:58;23.00;99.90
18083;DHT22;9168;51.194;6.840;2023-06-22T11:51:27;23.00;99.90
18083;DHT22;9168;51.194;6.840;2023-06-22T11:53:53;23.00;99.90
18083;DHT22;9168;51.194;6.840;2023-06-22T11:56:20;23.00;99.90
18083;DHT22;9168;51.194;6.840;2023-06-22T11:58:47;23.00;99.90
18083;DHT22;9168;51.194;6.840;2023-06-22T12:01:14;23.00;99.90
18083;DHT22;9168;51.194;6.840;2023-06-22T12:03:41;23.00;99.90
18083;DHT22;9168;51.194;6.840;2023-06-22T12:06:08;23.00;99.90
18083;DHT22;9168;51.194;6.840;2023-06-22T12:08:37;23.10;99.90
18083;DHT22;9168;51.194;6.840;2023-06-22T12:11:04;23.10;99.90
18083;DHT22;9168;51.194;6.840;2023-06-22T12:13:31;23.10;99.90
18083;DHT22;9168;51.194;6.840;2023-06-22T12:15:58;23.10;99.90
18083;DHT22;9168;51.194;6.840;2023-06-22T12:18:24;23.10;99.90
18083;DHT22;9168;51.194;6.840;2023-06-22T12:20:51;23.10;99.90
18083;DHT22;9168;51.194;6.840;2023-06-22T12:23:18;23.00;99.90
18083;DHT22;9168;51.194;6.840;2023-06-22T12:25:47;23.00;99.90
18083;DHT22;9168;51.194;6.840;2023-06-22T12:28:14;22.90;99.90
18083;DHT22;9168;51.194;6.840;2023-06-22T12:30:41;22.90;99.90
18083;DHT22;9168;51.194;6.840;2023-06-22T12:33:08;22.90;99.90
18083;DHT22;9168;51.194;6.840;2023-06-22T12:35:35;22.90;99.90
18083;DHT22;9168;51.194;6.840;2023-06-22T12:38:01;23.00;99.90
18083;DHT22;9168;51.194;6.840;2023-06-22T12:40:31;23.20;99.90
18083;DHT22;9168;51.194;6.840;2023-06-22T12:43:00;23.40;99.90
18083;DHT22;9168;51.194;6.840;2023-06-22T12:45:27;23.50;99.90
18083;DHT22;9168;51.194;6.840;2023-06-22T12:47:59;23.70;99.90
18083;DHT22;9168;51.194;6.840;2023-06-22T12:50:26;23.80;99.90
18083;DHT22;9168;51.194;6.840;2023-06-22T12:52:53;23.90;99.90
18083;DHT22;9168;51.194;6.840;2023-06-22T12:55:20;24.10;99.90
18083;DHT22;9168;51.194;6.840;2023-06-22T12:57:47;24.40;99.90
18083;DHT22;9168;51.194;6.840;2023-06-22T13:00:16;24.50;99.90
18083;DHT22;9168;51.194;6.840;2023-06-22T13:02:59;24.50;99.90
18083;DHT22;9168;51.194;6.840;2023-06-22T13:05:26;24.40;99.90
18083;DHT22;9168;51.194;6.840;2023-06-22T13:07:53;24.30;99.90
18083;DHT22;9168;51.194;6.840;2023-06-22T13:10:20;24.30;99.90
18083;DHT22;9168;51.194;6.840;2023-06-22T13:12:47;24.20;99.90
18083;DHT22;9168;51.194;6.840;2023-06-22T13:15:14;24.10;99.90
18083;DHT22;9168;51.194;6.840;2023-06-22T13:17:41;24.10;99.90
18083;DHT22;9168;51.194;6.840;2023-06-22T13:20:10;24.10;99.90
18083;DHT22;9168;51.194;6.840;2023-06-22T13:22:37;24.00;99.90
18083;DHT22;9168;51.194;6.840;2023-06-22T13:25:08;24.00;99.90
18083;DHT22;9168;51.194;6.840;2023-06-22T13:27:38;24.10;99.90
18083;DHT22;9168;51.194;6.840;2023-06-22T13:30:06;24.10;99.90
18083;DHT22;9168;51.194;6.840;2023-06-22T13:32:33;24.20;99.90
18083;DHT22;9168;51.194;6.840;2023-06-22T13:35:00;24.30;99.90
18083;DHT22;9168;51.194;6.840;2023-06-22T13:37:28;24.30;99.90
18083;DHT22;9168;51.194;6.840;2023-06-22T13:39:56;24.30;99.90
18083;DHT22;9168;51.194;6.840;2023-06-22T13:42:25;24.40;99.90
18083;DHT22;9168;51.194;6.840;2023-06-22T13:44:51;24.40;99.90
18083;DHT22;9168;51.194;6.840;2023-06-22T13:47:18;24.40;99.90
18083;DHT22;9168;51.194;6.840;2023-06-22T13:49:47;24.50;99.90
18083;DHT22;9168;51.194;6.840;2023-06-22T13:52:14;24.50;99.90
18083;DHT22;9168;51.194;6.840;2023-06-22T13:54:42;24.50;99.90
18083;DHT22;9168;51.194;6.840;2023-06-22T13:57:09;24.50;99.90
18083;DHT22;9168;51.194;6.840;2023-06-22T13:59:36;24.40;99.90
18083;DHT22;9168;51.194;6.840;2023-06-22T14:02:03;24.40;99.90
18083;DHT22;9168;51.194;6.840;2023-06-22T14:04:30;24.30;99.90
18083;DHT22;9168;51.194;6.840;2023-06-22T14:06:57;24.40;99.90
18083;DHT22;9168;51.194;6.840;2023-06-22T14:09:24;24.50;99.90
18083;DHT22;9168;51.194;6.840;2023-06-22T14:11:55;24.60;99.90
18083;DHT22;9168;51.194;6.840;2023-06-22T14:14:22;24.60;99.90
18083;DHT22;9168;51.194;6.840;2023-06-22T14:16:49;24.70;99.90
18083;DHT22;9168;51.194;6.840;2023-06-22T14:19:17;24.90;99.90
18083;DHT22;9168;51.194;6.840;2023-06-22T14:21:44;25.00;99.90
18083;DHT22;9168;51.194;6.840;2023-06-22T14:24:11;25.00;99.90
18083;DHT22;9168;51.194;6.840;2023-06-22T14:26:38;25.00;99.90
18083;DHT22;9168;51.194;6.840;2023-06-22T14:29:06;24.80;99.90
18083;DHT22;9168;51.194;6.840;2023-06-22T14:31:33;24.60;99.90
18083;DHT22;9168;51.194;6.840;2023-06-22T14:34:00;24.50;99.90
18083;DHT22;9168;51.194;6.840;2023-06-22T14:36:28;24.30;99.90
18083;DHT22;9168;51.194;6.840;2023-06-22T14:38:55;24.20;99.90
18083;DHT22;9168;51.194;6.840;2023-06-22T14:41:21;24.10;99.90
18083;DHT22;9168;51.194;6.840;2023-06-22T14:43:49;24.10;99.90
18083;DHT22;9168;51.194;6.840;2023-06-22T14:46:19;24.10;99.90
18083;DHT22;9168;51.194;6.840;2023-06-22T14:48:45;24.10;99.90
18083;DHT22;9168;51.194;6.840;2023-06-22T14:51:13;24.10;99.90
18083;DHT22;9168;51.194;6.840;2023-06-22T14:53:40;24.10;99.90
18083;DHT22;9168;51.194;6.840;2023-06-22T14:59:17;24.00;99.90
18083;DHT22;9168;51.194;6.840;2023-06-22T15:01:45;23.90;99.90
18083;DHT22;9168;51.194;6.840;2023-06-22T15:06:47;24.10;99.90
18083;DHT22;9168;51.194;6.840;2023-06-22T15:09:14;24.00;99.90
18083;DHT22;9168;51.194;6.840;2023-06-22T15:11:41;24.10;99.90
18083;DHT22;9168;51.194;6.840;2023-06-22T15:14:08;24.10;99.90
18083;DHT22;9168;51.194;6.840;2023-06-22T15:16:35;24.20;99.90
18083;DHT22;9168;51.194;6.840;2023-06-22T15:19:03;24.20;99.90
18083;DHT22;9168;51.194;6.840;2023-06-22T15:21:30;24.10;99.90
18083;DHT22;9168;51.194;6.840;2023-06-22T15:23:58;24.10;99.90
18083;DHT22;9168;51.194;6.840;2023-06-22T15:26:24;24.10;99.90
18083;DHT22;9168;51.194;6.840;2023-06-22T15:28:51;24.00;99.90
18083;DHT22;9168;51.194;6.840;2023-06-22T15:31:18;23.90;99.90
18083;DHT22;9168;51.194;6.840;2023-06-22T15:33:45;23.80;99.90
18083;DHT22;9168;51.194;6.840;2023-06-22T15:36:13;23.80;99.90
18083;DHT22;9168;51.194;6.840;2023-06-22T15:38:40;23.60;99.90
18083;DHT22;9168;51.194;6.840;2023-06-22T15:41:07;23.50;99.90
18083;DHT22;9168;51.194;6.840;2023-06-22T15:43:34;23.40;99.90
18083;DHT22;9168;51.194;6.840;2023-06-22T15:46:01;23.30;99.90
18083;DHT22;9168;51.194;6.840;2023-06-22T15:48:27;23.30;99.90
18083;DHT22;9168;51.194;6.840;2023-06-22T15:50:54;23.10;99.90
18083;DHT22;9168;51.194;6.840;2023-06-22T15:53:23;23.10;99.90